createdAt,value
2022-10-11T00:00:33.695Z,1015.96
2022-10-11T00:01:33.828Z,1015.96
2022-10-11T00:02:34.605Z,1015.96
2022-10-11T00:03:33.872Z,1015.98
2022-10-11T00:04:33.628Z,1015.97
2022-10-11T00:05:33.668Z,1016.01
2022-10-11T00:06:33.635Z,1015.98
2022-10-11T00:07:33.773Z,1016.07
2022-10-11T00:08:33.711Z,1016.07
2022-10-11T00:09:33.626Z,1016.04
2022-10-11T00:10:33.567Z,1016.06
2022-10-11T00:11:34.512Z,1016.10
2022-10-11T00:12:33.608Z,1016.09
2022-10-11T00:13:33.523Z,1016.09
2022-10-11T00:14:33.500Z,1016.10
2022-10-11T00:15:33.539Z,1016.09
2022-10-11T00:16:33.516Z,1016.12
2022-10-11T00:17:33.490Z,1016.14
2022-10-11T00:18:33.460Z,1016.15
2022-10-11T00:19:33.700Z,1016.17
2022-10-11T00:20:33.482Z,1016.18
2022-10-11T00:21:34.320Z,1016.16
2022-10-11T00:22:33.416Z,1016.19
2022-10-11T00:23:33.488Z,1016.21
2022-10-11T00:24:33.414Z,1016.19
2022-10-11T00:25:34.339Z,1016.18
2022-10-11T00:26:33.573Z,1016.20
2022-10-11T00:27:33.328Z,1016.13
2022-10-11T00:28:33.459Z,1016.16
2022-10-11T00:29:33.451Z,1016.18
2022-10-11T00:30:33.340Z,1016.19
2022-10-11T00:31:35.665Z,1016.22
2022-10-11T00:32:33.273Z,1016.24
2022-10-11T00:33:33.302Z,1016.27
2022-10-11T00:34:33.262Z,1016.23
2022-10-11T00:35:33.222Z,1016.30
2022-10-11T00:36:33.251Z,1016.27
2022-10-11T00:37:33.274Z,1016.31
2022-10-11T00:38:33.209Z,1016.28
2022-10-11T00:39:33.182Z,1016.29
2022-10-11T00:40:33.275Z,1016.28
2022-10-11T00:41:33.192Z,1016.22
2022-10-11T00:42:33.172Z,1016.29
2022-10-11T00:43:33.189Z,1016.27
2022-10-11T00:44:33.151Z,1016.28
2022-10-11T00:45:34.064Z,1016.32
2022-10-11T00:46:33.963Z,1016.32
2022-10-11T00:47:33.092Z,1016.31
2022-10-11T00:48:34.287Z,1016.35
2022-10-11T00:49:34.044Z,1016.37
2022-10-11T00:50:33.045Z,1016.37
2022-10-11T00:51:33.077Z,1016.36
2022-10-11T00:52:33.053Z,1016.38
2022-10-11T00:53:33.035Z,1016.37
2022-10-11T00:54:33.374Z,1016.36
2022-10-11T00:55:34.126Z,1016.36
2022-10-11T00:56:33.924Z,1016.40
2022-10-11T00:57:33.364Z,1016.38
2022-10-11T00:58:32.997Z,1016.34
2022-10-11T00:59:33.168Z,1016.38
2022-10-11T01:00:32.905Z,1016.34
2022-10-11T01:01:33.390Z,1016.39
2022-10-11T01:02:32.868Z,1016.38
2022-10-11T01:03:33.872Z,1016.39
2022-10-11T01:04:32.856Z,1016.37
2022-10-11T01:05:32.886Z,1016.36
2022-10-11T01:06:34.094Z,1016.41
2022-10-11T01:07:32.816Z,1016.39
2022-10-11T01:08:33.147Z,1016.40
2022-10-11T01:09:32.848Z,1016.39
2022-10-11T01:10:32.897Z,1016.38
2022-10-11T01:11:32.798Z,1016.39
2022-10-11T01:12:33.520Z,1016.39
2022-10-11T01:13:32.730Z,1016.40
2022-10-11T01:14:33.838Z,1016.38
2022-10-11T01:15:32.735Z,1016.41
2022-10-11T01:16:32.817Z,1016.40
2022-10-11T01:17:32.692Z,1016.42
2022-10-11T01:18:32.689Z,1016.42
2022-10-11T01:19:32.687Z,1016.41
2022-10-11T01:20:32.648Z,1016.45
2022-10-11T01:21:32.713Z,1016.44
2022-10-11T01:22:32.641Z,1016.49
2022-10-11T01:23:32.608Z,1016.50
2022-10-11T01:24:32.642Z,1016.51
2022-10-11T01:25:32.584Z,1016.53
2022-10-11T01:26:32.878Z,1016.53
2022-10-11T01:27:32.778Z,1016.48
2022-10-11T01:28:32.627Z,1016.51
2022-10-11T01:29:32.560Z,1016.54
2022-10-11T01:30:32.510Z,1016.53
2022-10-11T01:31:32.560Z,1016.56
2022-10-11T01:32:32.477Z,1016.56
2022-10-11T01:33:32.453Z,1016.55
2022-10-11T01:34:33.453Z,1016.58
2022-10-11T01:35:32.465Z,1016.58
2022-10-11T01:36:32.451Z,1016.61
2022-10-11T01:37:32.504Z,1016.63
2022-10-11T01:38:33.581Z,1016.68
2022-10-11T01:39:32.464Z,1016.68
2022-10-11T01:40:33.392Z,1016.70
2022-10-11T01:41:32.413Z,1016.69
2022-10-11T01:42:32.378Z,1016.71
2022-10-11T01:43:32.344Z,1016.73
2022-10-11T01:44:32.325Z,1016.71
2022-10-11T01:45:32.386Z,1016.71
2022-10-11T01:46:32.387Z,1016.72
2022-10-11T01:47:32.619Z,1016.70
2022-10-11T01:48:32.262Z,1016.70
2022-10-11T01:49:32.290Z,1016.73
2022-10-11T01:50:32.295Z,1016.72
2022-10-11T01:51:32.256Z,1016.71
2022-10-11T01:52:33.284Z,1016.71
2022-10-11T01:53:32.226Z,1016.72
2022-10-11T01:54:50.220Z,1016.77
2022-10-11T01:55:33.164Z,1016.73
2022-10-11T01:56:33.395Z,1016.77
2022-10-11T01:57:32.546Z,1016.76
2022-10-11T01:58:32.158Z,1016.75
2022-10-11T01:59:32.135Z,1016.77
2022-10-11T02:00:32.163Z,1016.75
2022-10-11T02:01:32.225Z,1016.82
2022-10-11T02:02:32.269Z,1016.77
2022-10-11T02:03:32.136Z,1016.82
2022-10-11T02:04:32.270Z,1016.79
2022-10-11T02:05:32.048Z,1016.77
2022-10-11T02:06:32.045Z,1016.79
2022-10-11T02:07:32.008Z,1016.79
2022-10-11T02:08:32.058Z,1016.79
2022-10-11T02:09:32.600Z,1016.79
2022-10-11T02:10:32.021Z,1016.85
2022-10-11T02:11:31.980Z,1016.80
2022-10-11T02:12:31.975Z,1016.84
2022-10-11T02:13:33.416Z,1016.84
2022-10-11T02:14:33.063Z,1016.85
2022-10-11T02:15:31.973Z,1016.90
2022-10-11T02:16:31.927Z,1016.89
2022-10-11T02:17:31.907Z,1016.94
2022-10-11T02:18:31.894Z,1016.89
2022-10-11T02:19:31.887Z,1016.89
2022-10-11T02:20:32.621Z,1016.97
2022-10-11T02:21:33.040Z,1016.94
2022-10-11T02:22:32.095Z,1016.96
2022-10-11T02:23:31.827Z,1016.92
2022-10-11T02:24:32.747Z,1016.93
2022-10-11T02:25:33.240Z,1016.96
2022-10-11T02:26:32.032Z,1016.93
2022-10-11T02:27:32.108Z,1016.97
2022-10-11T02:28:31.832Z,1016.94
2022-10-11T02:29:31.799Z,1016.97
2022-10-11T02:30:31.826Z,1016.93
2022-10-11T02:31:31.790Z,1016.97
2022-10-11T02:32:31.720Z,1016.96
2022-10-11T02:33:31.803Z,1016.99
2022-10-11T02:34:31.747Z,1017.01
2022-10-11T02:35:31.671Z,1017.01
2022-10-11T02:36:31.791Z,1017.02
2022-10-11T02:37:31.691Z,1017.03
2022-10-11T02:38:31.692Z,1017.11
2022-10-11T02:39:31.652Z,1017.07
2022-10-11T02:40:31.636Z,1017.05
2022-10-11T02:41:31.672Z,1017.07
2022-10-11T02:42:31.713Z,1017.07
2022-10-11T02:43:31.745Z,1017.13
2022-10-11T02:44:31.552Z,1017.10
2022-10-11T02:45:31.553Z,1017.11
2022-10-11T02:46:31.571Z,1017.15
2022-10-11T02:47:31.553Z,1017.14
2022-10-11T02:48:31.484Z,1017.13
2022-10-11T02:49:31.529Z,1017.16
2022-10-11T02:50:31.562Z,1017.17
2022-10-11T02:51:31.475Z,1017.14
2022-10-11T02:52:31.430Z,1017.16
2022-10-11T02:53:32.525Z,1017.15
2022-10-11T02:54:31.595Z,1017.16
2022-10-11T02:55:31.407Z,1017.16
2022-10-11T02:56:32.435Z,1017.17
2022-10-11T02:57:31.435Z,1017.15
2022-10-11T02:58:31.367Z,1017.15
2022-10-11T02:59:31.355Z,1017.14
2022-10-11T03:00:32.364Z,1017.17
2022-10-11T03:01:32.309Z,1017.17
2022-10-11T03:02:31.327Z,1017.19
2022-10-11T03:03:31.318Z,1017.21
2022-10-11T03:04:31.444Z,1017.20
2022-10-11T03:05:31.448Z,1017.20
2022-10-11T03:06:31.335Z,1017.19
2022-10-11T03:07:31.276Z,1017.19
2022-10-11T03:08:31.316Z,1017.21
2022-10-11T03:09:31.411Z,1017.18
2022-10-11T03:10:31.279Z,1017.21
2022-10-11T03:11:31.180Z,1017.22
2022-10-11T03:12:32.239Z,1017.27
2022-10-11T03:13:31.380Z,1017.24
2022-10-11T03:14:31.264Z,1017.27
2022-10-11T03:15:31.168Z,1017.27
2022-10-11T03:16:31.235Z,1017.31
2022-10-11T03:17:36.489Z,1017.29
2022-10-11T03:18:32.179Z,1017.29
2022-10-11T03:19:31.116Z,1017.36
2022-10-11T03:20:31.196Z,1017.43
2022-10-11T03:21:31.869Z,1017.39
2022-10-11T03:22:31.067Z,1017.37
2022-10-11T03:23:31.790Z,1017.36
2022-10-11T03:24:31.016Z,1017.40
2022-10-11T03:25:31.024Z,1017.42
2022-10-11T03:26:31.015Z,1017.43
2022-10-11T03:27:32.507Z,1017.44
2022-10-11T03:28:31.063Z,1017.45
2022-10-11T03:29:30.990Z,1017.43
2022-10-11T03:30:30.990Z,1017.49
2022-10-11T03:31:31.043Z,1017.41
2022-10-11T03:32:30.998Z,1017.47
2022-10-11T03:33:30.915Z,1017.51
2022-10-11T03:34:31.104Z,1017.49
2022-10-11T03:35:30.897Z,1017.52
2022-10-11T03:36:30.930Z,1017.52
2022-10-11T03:37:30.863Z,1017.53
2022-10-11T03:38:30.870Z,1017.53
2022-10-11T03:39:30.923Z,1017.56
2022-10-11T03:40:30.991Z,1017.49
2022-10-11T03:41:30.822Z,1017.51
2022-10-11T03:42:30.859Z,1017.56
2022-10-11T03:43:31.822Z,1017.55
2022-10-11T03:44:31.728Z,1017.64
2022-10-11T03:45:30.833Z,1017.59
2022-10-11T03:46:30.819Z,1017.63
2022-10-11T03:47:31.956Z,1017.64
2022-10-11T03:48:30.891Z,1017.63
2022-10-11T03:49:30.693Z,1017.63
2022-10-11T03:50:30.712Z,1017.61
2022-10-11T03:51:30.703Z,1017.61
2022-10-11T03:52:30.833Z,1017.66
2022-10-11T03:53:30.652Z,1017.64
2022-10-11T03:54:30.656Z,1017.67
2022-10-11T03:55:30.684Z,1017.64
2022-10-11T03:56:30.692Z,1017.68
2022-10-11T03:57:31.516Z,1017.68
2022-10-11T03:58:30.716Z,1017.71
2022-10-11T03:59:31.827Z,1017.68
2022-10-11T04:00:30.685Z,1017.71
2022-10-11T04:01:30.579Z,1017.70
2022-10-11T04:02:30.593Z,1017.73
2022-10-11T04:03:30.570Z,1017.75
2022-10-11T04:04:30.986Z,1017.75
2022-10-11T04:05:30.507Z,1017.78
2022-10-11T04:06:30.506Z,1017.79
2022-10-11T04:07:30.527Z,1017.76
2022-10-11T04:08:30.583Z,1017.79
2022-10-11T04:09:30.455Z,1017.81
2022-10-11T04:10:30.486Z,1017.80
2022-10-11T04:11:30.511Z,1017.81
2022-10-11T04:12:30.445Z,1017.81
2022-10-11T04:13:30.456Z,1017.88
2022-10-11T04:14:30.491Z,1017.87
2022-10-11T04:15:30.416Z,1017.86
2022-10-11T04:16:30.339Z,1017.88
2022-10-11T04:17:30.582Z,1017.90
2022-10-11T04:18:30.355Z,1017.94
2022-10-11T04:19:30.340Z,1017.94
2022-10-11T04:20:30.290Z,1017.96
2022-10-11T04:21:30.295Z,1017.97
2022-10-11T04:22:30.271Z,1018.02
2022-10-11T04:23:30.311Z,1017.97
2022-10-11T04:24:30.370Z,1018.01
2022-10-11T04:25:30.268Z,1018.02
2022-10-11T04:26:31.195Z,1018.03
2022-10-11T04:27:30.288Z,1018.05
2022-10-11T04:28:30.248Z,1018.06
2022-10-11T04:29:32.743Z,1018.06
2022-10-11T04:30:30.209Z,1018.07
2022-10-11T04:31:31.306Z,1018.07
2022-10-11T04:32:30.211Z,1018.09
2022-10-11T04:33:30.160Z,1018.11
2022-10-11T04:34:30.148Z,1018.10
2022-10-11T04:35:30.122Z,1018.09
2022-10-11T04:36:30.121Z,1018.12
2022-10-11T04:37:30.106Z,1018.11
2022-10-11T04:38:30.096Z,1018.14
2022-10-11T04:39:30.094Z,1018.12
2022-10-11T04:40:30.164Z,1018.14
2022-10-11T04:41:30.063Z,1018.11
2022-10-11T04:42:31.003Z,1018.14
2022-10-11T04:43:30.181Z,1018.13
2022-10-11T04:44:30.062Z,1018.14
2022-10-11T04:45:30.991Z,1018.19
2022-10-11T04:46:30.925Z,1018.16
2022-10-11T04:47:29.992Z,1018.20
2022-10-11T04:48:30.182Z,1018.18
2022-10-11T04:49:29.994Z,1018.19
2022-10-11T04:50:29.967Z,1018.20
2022-10-11T04:51:30.026Z,1018.18
2022-10-11T04:52:30.072Z,1018.20
2022-10-11T04:53:30.704Z,1018.18
2022-10-11T04:54:30.856Z,1018.19
2022-10-11T04:55:29.890Z,1018.23
2022-10-11T04:56:29.911Z,1018.25
2022-10-11T04:57:30.032Z,1018.26
2022-10-11T04:58:29.943Z,1018.25
2022-10-11T04:59:29.883Z,1018.28
2022-10-11T05:00:30.579Z,1018.29
2022-10-11T05:01:30.993Z,1018.30
2022-10-11T05:02:29.877Z,1018.30
2022-10-11T05:03:29.793Z,1018.34
2022-10-11T05:04:29.926Z,1018.39
2022-10-11T05:05:29.841Z,1018.38
2022-10-11T05:06:29.789Z,1018.41
2022-10-11T05:07:30.652Z,1018.42
2022-10-11T05:08:29.987Z,1018.39
2022-10-11T05:09:29.683Z,1018.41
2022-10-11T05:10:29.695Z,1018.41
2022-10-11T05:11:29.663Z,1018.35
2022-10-11T05:12:29.676Z,1018.42
2022-10-11T05:13:29.651Z,1018.45
2022-10-11T05:14:29.695Z,1018.43
2022-10-11T05:15:29.939Z,1018.44
2022-10-11T05:16:29.596Z,1018.49
2022-10-11T05:17:29.677Z,1018.45
2022-10-11T05:18:29.542Z,1018.48
2022-10-11T05:19:29.537Z,1018.47
2022-10-11T05:20:29.519Z,1018.50
2022-10-11T05:21:29.518Z,1018.46
2022-10-11T05:22:29.510Z,1018.55
2022-10-11T05:23:29.484Z,1018.52
2022-10-11T05:24:29.497Z,1018.57
2022-10-11T05:25:29.454Z,1018.64
2022-10-11T05:26:29.477Z,1018.59
2022-10-11T05:27:29.461Z,1018.62
2022-10-11T05:28:30.486Z,1018.54
2022-10-11T05:29:29.487Z,1018.59
2022-10-11T05:30:29.415Z,1018.59
2022-10-11T05:31:30.154Z,1018.64
2022-10-11T05:32:29.488Z,1018.67
2022-10-11T05:33:30.476Z,1018.65
2022-10-11T05:34:29.394Z,1018.66
2022-10-11T05:35:29.341Z,1018.70
2022-10-11T05:36:29.334Z,1018.72
2022-10-11T05:37:29.463Z,1018.70
2022-10-11T05:38:29.318Z,1018.72
2022-10-11T05:39:29.275Z,1018.76
2022-10-11T05:40:29.269Z,1018.73
2022-10-11T05:41:29.287Z,1018.76
2022-10-11T05:42:29.311Z,1018.79
2022-10-11T05:43:29.238Z,1018.78
2022-10-11T05:44:29.205Z,1018.80
2022-10-11T05:45:29.247Z,1018.79
2022-10-11T05:46:29.229Z,1018.82
2022-10-11T05:47:29.210Z,1018.83
2022-10-11T05:48:29.155Z,1018.85
2022-10-11T05:49:29.143Z,1018.85
2022-10-11T05:50:29.165Z,1018.89
2022-10-11T05:51:29.149Z,1018.87
2022-10-11T05:52:29.133Z,1018.88
2022-10-11T05:53:29.080Z,1018.88
2022-10-11T05:54:30.015Z,1018.93
2022-10-11T05:55:29.083Z,1018.94
2022-10-11T05:56:29.068Z,1018.91
2022-10-11T05:57:29.111Z,1018.91
2022-10-11T05:58:29.087Z,1018.95
2022-10-11T05:59:29.092Z,1018.95
2022-10-11T06:00:29.051Z,1018.95
2022-10-11T06:01:29.097Z,1019.01
2022-10-11T06:02:28.983Z,1018.99
2022-10-11T06:03:29.022Z,1018.99
2022-10-11T06:04:28.978Z,1018.97
2022-10-11T06:05:28.968Z,1018.98
2022-10-11T06:06:28.945Z,1018.95
2022-10-11T06:07:29.003Z,1018.97
2022-10-11T06:08:28.991Z,1018.96
2022-10-11T06:09:28.883Z,1018.97
2022-10-11T06:10:28.965Z,1019.01
2022-10-11T06:11:28.863Z,1019.07
2022-10-11T06:12:28.924Z,1019.04
2022-10-11T06:13:28.867Z,1019.06
2022-10-11T06:14:28.860Z,1019.09
2022-10-11T06:15:28.811Z,1019.11
2022-10-11T06:16:28.817Z,1019.08
2022-10-11T06:17:28.841Z,1019.09
2022-10-11T06:18:28.795Z,1019.11
2022-10-11T06:19:28.855Z,1019.12
2022-10-11T06:20:28.910Z,1019.14
2022-10-11T06:21:28.765Z,1019.14
2022-10-11T06:22:28.783Z,1019.12
2022-10-11T06:23:28.695Z,1019.11
2022-10-11T06:24:28.740Z,1019.15
2022-10-11T06:25:28.720Z,1019.16
2022-10-11T06:26:28.667Z,1019.17
2022-10-11T06:27:28.680Z,1019.19
2022-10-11T06:28:28.749Z,1019.20
2022-10-11T06:29:28.701Z,1019.18
2022-10-11T06:30:28.675Z,1019.20
2022-10-11T06:31:28.610Z,1019.22
2022-10-11T06:32:28.575Z,1019.26
2022-10-11T06:33:28.573Z,1019.23
2022-10-11T06:34:28.693Z,1019.31
2022-10-11T06:35:28.575Z,1019.30
2022-10-11T06:36:28.550Z,1019.32
2022-10-11T06:37:28.525Z,1019.34
2022-10-11T06:38:28.550Z,1019.37
2022-10-11T06:39:28.532Z,1019.34
2022-10-11T06:40:28.500Z,1019.38
2022-10-11T06:41:28.507Z,1019.38
2022-10-11T06:42:28.536Z,1019.40
2022-10-11T06:43:28.479Z,1019.41
2022-10-11T06:44:28.438Z,1019.43
2022-10-11T06:45:28.432Z,1019.40
2022-10-11T06:46:28.448Z,1019.43
2022-10-11T06:47:28.407Z,1019.48
2022-10-11T06:48:28.437Z,1019.52
2022-10-11T06:49:28.418Z,1019.51
2022-10-11T06:50:54.418Z,1019.53
2022-10-11T06:51:29.420Z,1019.58
2022-10-11T06:52:28.418Z,1019.57
2022-10-11T06:53:28.399Z,1019.61
2022-10-11T06:54:28.373Z,1019.63
2022-10-11T06:55:29.343Z,1019.56
2022-10-11T06:56:28.431Z,1019.57
2022-10-11T06:57:28.300Z,1019.61
2022-10-11T06:58:28.269Z,1019.53
2022-10-11T06:59:28.299Z,1019.59
2022-10-11T07:00:28.258Z,1019.57
2022-10-11T07:01:28.326Z,1019.62
2022-10-11T07:02:28.271Z,1019.60
2022-10-11T07:03:28.209Z,1019.60
2022-10-11T07:04:28.200Z,1019.64
2022-10-11T07:05:28.159Z,1019.69
2022-10-11T07:06:28.191Z,1019.73
2022-10-11T07:07:28.146Z,1019.76
2022-10-11T07:08:29.044Z,1019.76
2022-10-11T07:09:28.115Z,1019.78
2022-10-11T07:10:28.111Z,1019.79
2022-10-11T07:11:28.151Z,1019.78
2022-10-11T07:12:28.092Z,1019.83
2022-10-11T07:13:28.130Z,1019.83
2022-10-11T07:14:28.119Z,1019.83
2022-10-11T07:15:28.062Z,1019.84
2022-10-11T07:16:28.024Z,1019.82
2022-10-11T07:17:28.039Z,1019.81
2022-10-11T07:18:27.998Z,1019.85
2022-10-11T07:19:28.023Z,1019.90
2022-10-11T07:20:27.998Z,1019.87
2022-10-11T07:21:28.026Z,1019.88
2022-10-11T07:22:28.017Z,1019.94
2022-10-11T07:23:27.923Z,1019.89
2022-10-11T07:24:27.997Z,1019.91
2022-10-11T07:25:27.974Z,1019.93
2022-10-11T07:26:27.894Z,1019.94
2022-10-11T07:27:28.756Z,1019.95
2022-10-11T07:28:28.010Z,1019.94
2022-10-11T07:29:27.863Z,1019.97
2022-10-11T07:30:27.868Z,1019.98
2022-10-11T07:31:27.856Z,1019.99
2022-10-11T07:32:27.918Z,1019.98
2022-10-11T07:33:27.793Z,1019.99
2022-10-11T07:34:27.817Z,1020.03
2022-10-11T07:35:27.786Z,1020.00
2022-10-11T07:36:27.770Z,1020.02
2022-10-11T07:37:27.846Z,1020.01
2022-10-11T07:38:27.821Z,1020.00
2022-10-11T07:39:27.759Z,1019.97
2022-10-11T07:40:27.757Z,1019.98
2022-10-11T07:41:27.736Z,1019.98
2022-10-11T07:42:27.665Z,1020.00
2022-10-11T07:43:27.737Z,1020.01
2022-10-11T07:44:27.678Z,1020.00
2022-10-11T07:45:27.668Z,1020.03
2022-10-11T07:46:27.627Z,1020.02
2022-10-11T07:47:27.634Z,1020.02
2022-10-11T07:48:27.642Z,1019.99
2022-10-11T07:49:27.654Z,1020.03
2022-10-11T07:50:27.618Z,1020.06
2022-10-11T07:51:27.571Z,1020.06
2022-10-11T07:52:27.548Z,1020.04
2022-10-11T07:53:27.580Z,1020.09
2022-10-11T07:54:27.551Z,1020.07
2022-10-11T07:55:27.538Z,1020.07
2022-10-11T07:56:27.488Z,1020.03
2022-10-11T07:57:27.478Z,1020.06
2022-10-11T07:58:27.517Z,1020.05
2022-10-11T07:59:27.542Z,1020.06
2022-10-11T08:00:27.463Z,1020.06
2022-10-11T08:01:27.614Z,1020.06
2022-10-11T08:02:27.457Z,1020.07
2022-10-11T08:03:27.413Z,1020.11
2022-10-11T08:04:28.283Z,1020.13
2022-10-11T08:05:27.390Z,1020.12
2022-10-11T08:06:27.388Z,1020.13
2022-10-11T08:07:27.571Z,1020.11
2022-10-11T08:08:27.341Z,1020.15
2022-10-11T08:09:27.360Z,1020.09
2022-10-11T08:10:27.350Z,1020.14
2022-10-11T08:11:27.351Z,1020.12
2022-10-11T08:12:27.310Z,1020.20
2022-10-11T08:13:27.326Z,1020.17
2022-10-11T08:14:27.763Z,1020.17
2022-10-11T08:15:27.273Z,1020.14
2022-10-11T08:16:27.277Z,1020.18
2022-10-11T08:17:27.362Z,1020.19
2022-10-11T08:18:27.224Z,1020.22
2022-10-11T08:19:27.261Z,1020.27
2022-10-11T08:20:27.211Z,1020.20
2022-10-11T08:21:27.205Z,1020.20
2022-10-11T08:22:27.243Z,1020.22
2022-10-11T08:23:27.204Z,1020.24
2022-10-11T08:24:27.532Z,1020.20
2022-10-11T08:25:27.117Z,1020.22
2022-10-11T08:26:27.164Z,1020.21
2022-10-11T08:27:27.097Z,1020.26
2022-10-11T08:28:27.129Z,1020.27
2022-10-11T08:29:27.083Z,1020.27
2022-10-11T08:30:27.108Z,1020.29
2022-10-11T08:31:27.078Z,1020.28
2022-10-11T08:32:27.067Z,1020.29
2022-10-11T08:33:27.075Z,1020.31
2022-10-11T08:34:27.038Z,1020.34
2022-10-11T08:35:27.050Z,1020.29
2022-10-11T08:36:27.039Z,1020.26
2022-10-11T08:37:26.989Z,1020.29
2022-10-11T08:38:26.996Z,1020.29
2022-10-11T08:39:26.959Z,1020.30
2022-10-11T08:40:30.379Z,1020.29
2022-10-11T08:41:27.948Z,1020.32
2022-10-11T08:42:26.917Z,1020.30
2022-10-11T08:43:26.910Z,1020.35
2022-10-11T08:44:26.989Z,1020.35
2022-10-11T08:45:26.923Z,1020.31
2022-10-11T08:46:26.886Z,1020.32
2022-10-11T08:47:26.876Z,1020.35
2022-10-11T08:48:26.819Z,1020.36
2022-10-11T08:49:26.866Z,1020.35
2022-10-11T08:50:26.819Z,1020.40
2022-10-11T08:51:26.781Z,1020.36
2022-10-11T08:52:26.921Z,1020.35
2022-10-11T08:53:26.827Z,1020.44
2022-10-11T08:54:26.827Z,1020.43
2022-10-11T08:55:26.779Z,1020.42
2022-10-11T08:56:26.760Z,1020.42
2022-10-11T08:57:26.921Z,1020.48
2022-10-11T08:58:26.687Z,1020.43
2022-10-11T08:59:26.669Z,1020.48
2022-10-11T09:00:26.661Z,1020.52
2022-10-11T09:01:26.740Z,1020.56
2022-10-11T09:02:31.816Z,1020.52
2022-10-11T09:03:27.664Z,1020.50
2022-10-11T09:04:26.643Z,1020.52
2022-10-11T09:05:27.532Z,1020.53
2022-10-11T09:06:26.674Z,1020.52
2022-10-11T09:07:26.631Z,1020.50
2022-10-11T09:08:26.667Z,1020.49
2022-10-11T09:09:26.535Z,1020.51
2022-10-11T09:10:26.557Z,1020.48
2022-10-11T09:11:26.635Z,1020.46
2022-10-11T09:12:31.011Z,1020.52
2022-10-11T09:13:27.507Z,1020.48
2022-10-11T09:14:26.496Z,1020.48
2022-10-11T09:15:26.490Z,1020.50
2022-10-11T09:16:26.465Z,1020.51
2022-10-11T09:17:26.615Z,1020.49
2022-10-11T09:18:26.468Z,1020.47
2022-10-11T09:19:26.423Z,1020.45
2022-10-11T09:20:26.387Z,1020.51
2022-10-11T09:21:26.404Z,1020.50
2022-10-11T09:22:30.619Z,1020.47
2022-10-11T09:23:26.466Z,1020.52
2022-10-11T09:24:26.353Z,1020.49
2022-10-11T09:25:26.334Z,1020.48
2022-10-11T09:26:26.378Z,1020.44
2022-10-11T09:27:50.246Z,1020.49
2022-10-11T09:28:27.499Z,1020.48
2022-10-11T09:29:26.268Z,1020.53
2022-10-11T09:30:26.269Z,1020.52
2022-10-11T09:31:26.318Z,1020.49
2022-10-11T09:32:26.278Z,1020.51
2022-10-11T09:33:26.287Z,1020.51
2022-10-11T09:34:26.246Z,1020.49
2022-10-11T09:35:26.234Z,1020.54
2022-10-11T09:36:26.177Z,1020.53
2022-10-11T09:37:26.241Z,1020.56
2022-10-11T09:38:26.251Z,1020.59
2022-10-11T09:39:26.164Z,1020.55
2022-10-11T09:40:26.144Z,1020.55
2022-10-11T09:41:26.121Z,1020.54
2022-10-11T09:42:26.149Z,1020.50
2022-10-11T09:43:26.148Z,1020.55
2022-10-11T09:44:26.111Z,1020.55
2022-10-11T09:45:26.111Z,1020.50
2022-10-11T09:46:26.181Z,1020.47
2022-10-11T09:47:26.084Z,1020.54
2022-10-11T09:48:26.994Z,1020.52
2022-10-11T09:49:26.022Z,1020.53
2022-10-11T09:50:26.043Z,1020.53
2022-10-11T09:51:26.051Z,1020.53
2022-10-11T09:52:26.013Z,1020.55
2022-10-11T09:53:27.021Z,1020.52
2022-10-11T09:54:25.978Z,1020.56
2022-10-11T09:55:25.976Z,1020.56
2022-10-11T09:56:25.934Z,1020.54
2022-10-11T09:57:25.915Z,1020.57
2022-10-11T09:58:27.051Z,1020.54
2022-10-11T09:59:26.043Z,1020.52
2022-10-11T10:00:26.190Z,1020.55
2022-10-11T10:01:25.907Z,1020.56
2022-10-11T10:02:25.857Z,1020.57
2022-10-11T10:03:25.811Z,1020.55
2022-10-11T10:04:25.862Z,1020.56
2022-10-11T10:05:25.851Z,1020.59
2022-10-11T10:06:26.716Z,1020.62
2022-10-11T10:07:25.807Z,1020.61
2022-10-11T10:08:26.604Z,1020.64
2022-10-11T10:09:25.855Z,1020.64
2022-10-11T10:10:26.924Z,1020.63
2022-10-11T10:11:25.900Z,1020.66
2022-10-11T10:12:25.737Z,1020.65
2022-10-11T10:13:25.770Z,1020.64
2022-10-11T10:14:25.718Z,1020.65
2022-10-11T10:15:25.684Z,1020.68
2022-10-11T10:16:25.682Z,1020.66
2022-10-11T10:17:25.720Z,1020.68
2022-10-11T10:18:25.687Z,1020.64
2022-10-11T10:19:25.942Z,1020.65
2022-10-11T10:20:25.718Z,1020.73
2022-10-11T10:21:25.760Z,1020.73
2022-10-11T10:22:25.599Z,1020.69
2022-10-11T10:23:25.603Z,1020.71
2022-10-11T10:24:25.578Z,1020.71
2022-10-11T10:25:25.547Z,1020.65
2022-10-11T10:26:26.409Z,1020.66
2022-10-11T10:27:25.560Z,1020.68
2022-10-11T10:28:25.629Z,1020.68
2022-10-11T10:29:25.528Z,1020.67
2022-10-11T10:30:25.482Z,1020.69
2022-10-11T10:31:25.472Z,1020.71
2022-10-11T10:32:26.296Z,1020.69
2022-10-11T10:33:25.474Z,1020.68
2022-10-11T10:34:25.454Z,1020.64
2022-10-11T10:35:25.457Z,1020.65
2022-10-11T10:36:25.431Z,1020.64
2022-10-11T10:37:25.471Z,1020.70
2022-10-11T10:38:26.740Z,1020.71
2022-10-11T10:39:25.401Z,1020.69
2022-10-11T10:40:25.340Z,1020.69
2022-10-11T10:41:25.354Z,1020.65
2022-10-11T10:42:25.379Z,1020.62
2022-10-11T10:43:25.327Z,1020.68
2022-10-11T10:44:26.242Z,1020.69
2022-10-11T10:45:25.475Z,1020.68
2022-10-11T10:46:25.271Z,1020.73
2022-10-11T10:47:25.324Z,1020.71
2022-10-11T10:48:25.234Z,1020.74
2022-10-11T10:50:26.239Z,1020.67
2022-10-11T10:51:25.239Z,1020.71
2022-10-11T10:52:25.237Z,1020.76
2022-10-11T10:53:25.237Z,1020.71
2022-10-11T10:54:25.147Z,1020.71
2022-10-11T10:55:25.143Z,1020.74
2022-10-11T10:56:25.174Z,1020.71
2022-10-11T10:57:25.189Z,1020.74
2022-10-11T10:58:25.176Z,1020.73
2022-10-11T10:59:25.115Z,1020.74
2022-10-11T11:00:25.094Z,1020.69
2022-10-11T11:01:25.164Z,1020.71
2022-10-11T11:02:41.541Z,1020.76
2022-10-11T11:03:26.101Z,1020.70
2022-10-11T11:04:25.047Z,1020.74
2022-10-11T11:05:25.087Z,1020.72
2022-10-11T11:06:25.027Z,1020.70
2022-10-11T11:07:25.023Z,1020.70
2022-10-11T11:08:25.277Z,1020.66
2022-10-11T11:09:24.969Z,1020.70
2022-10-11T11:10:25.139Z,1020.68
2022-10-11T11:11:24.957Z,1020.66
2022-10-11T11:12:25.167Z,1020.63
2022-10-11T11:13:24.963Z,1020.67
2022-10-11T11:14:24.929Z,1020.67
2022-10-11T11:15:31.992Z,1020.63
2022-10-11T11:16:25.874Z,1020.66
2022-10-11T11:17:24.891Z,1020.65
2022-10-11T11:18:24.855Z,1020.62
2022-10-11T11:19:24.933Z,1020.68
2022-10-11T11:20:24.841Z,1020.65
2022-10-11T11:21:24.828Z,1020.63
2022-10-11T11:22:28.044Z,1020.66
2022-10-11T11:23:25.864Z,1020.65
2022-10-11T11:24:25.859Z,1020.64
2022-10-11T11:25:24.925Z,1020.62
2022-10-11T11:26:24.758Z,1020.61
2022-10-11T11:27:24.735Z,1020.59
2022-10-11T11:28:24.961Z,1020.52
2022-10-11T11:29:24.737Z,1020.55
2022-10-11T11:30:24.783Z,1020.51
2022-10-11T11:31:24.702Z,1020.51
2022-10-11T11:32:24.649Z,1020.51
2022-10-11T11:33:24.632Z,1020.54
2022-10-11T11:34:24.658Z,1020.49
2022-10-11T11:35:25.417Z,1020.55
2022-10-11T11:36:24.616Z,1020.54
2022-10-11T11:37:24.621Z,1020.54
2022-10-11T11:38:29.359Z,1020.54
2022-10-11T11:39:24.648Z,1020.53
2022-10-11T11:40:24.640Z,1020.55
2022-10-11T11:41:24.520Z,1020.60
2022-10-11T11:42:25.776Z,1020.61
2022-10-11T11:43:24.802Z,1020.63
2022-10-11T11:44:27.494Z,1020.60
2022-10-11T11:45:24.495Z,1020.56
2022-10-11T11:46:24.492Z,1020.55
2022-10-11T11:47:24.528Z,1020.55
2022-10-11T11:48:25.919Z,1020.58
2022-10-11T11:49:24.523Z,1020.60
2022-10-11T11:50:24.655Z,1020.60
2022-10-11T11:51:26.579Z,1020.58
2022-10-11T11:52:24.410Z,1020.57
2022-10-11T11:53:25.371Z,1020.53
2022-10-11T11:54:24.386Z,1020.57
2022-10-11T11:55:24.391Z,1020.51
2022-10-11T11:56:24.328Z,1020.53
2022-10-11T11:57:24.414Z,1020.52
2022-10-11T11:58:24.317Z,1020.58
2022-10-11T11:59:24.421Z,1020.57
2022-10-11T12:00:24.335Z,1020.56
2022-10-11T12:01:28.827Z,1020.58
2022-10-11T12:02:25.322Z,1020.53
2022-10-11T12:03:25.301Z,1020.52
2022-10-11T12:04:24.240Z,1020.56
2022-10-11T12:05:24.268Z,1020.60
2022-10-11T12:06:24.237Z,1020.61